< < Back
Terminal Aerodrome Forecast


Current Version              Previous Versions:   1  2  3  4  5  6  7  8  9  

Terminal Aerodrome Forecast

337
FTUS42 KFFC 271134
TAFATL
TAF
KATL 271134Z 2712/2818 VRB03KT P6SM BKN009
     FM271500 17008KT P6SM VCSH BKN015
     FM271800 17008KT P6SM VCSH BKN025
     FM272000 24007KT 6SM -SHRA BR BKN035 PROB30 2721/2724 3SM -TSRA
      BKN015CB
     FM280000 20005KT P6SM BKN040
     FM280500 VRB03KT P6SM SCT020 BKN080
     FM281300 16006KT P6SM BKN030=

Latest METAR

540
SAUS70 KWBC 271100 RRC
MTRATL
METAR KATL 271052Z 00000KT 7SM BKN009 OVC028 19/18 A3024 RMK AO2 SLP235
T01940178


USA.gov is the U.S. government's official web portal to all federal, state and local government web resources and services.